createdAt,value
2023-04-10T00:00:09.146Z,99.90
2023-04-10T00:02:38.775Z,99.90
2023-04-10T00:05:08.362Z,99.90
2023-04-10T00:07:36.326Z,99.90
2023-04-10T00:10:04.193Z,99.90
2023-04-10T00:12:32.093Z,99.90
2023-04-10T00:14:59.936Z,99.90
2023-04-10T00:17:27.678Z,99.90
2023-04-10T00:20:01.772Z,99.90
2023-04-10T00:22:29.548Z,99.90
2023-04-10T00:24:57.211Z,99.90
2023-04-10T00:27:25.056Z,99.90
2023-04-10T00:29:52.892Z,99.90
2023-04-10T00:32:20.188Z,99.90
2023-04-10T00:34:47.826Z,99.90
2023-04-10T00:37:15.549Z,99.90
2023-04-10T00:39:45.526Z,99.90
2023-04-10T00:42:13.315Z,99.90
2023-04-10T00:44:41.889Z,99.90
2023-04-10T00:47:13.446Z,99.90
2023-04-10T00:49:42.613Z,99.90
2023-04-10T00:52:11.157Z,99.90
2023-04-10T00:54:40.420Z,99.90
2023-04-10T00:57:08.564Z,99.90
2023-04-10T00:59:36.625Z,99.90
2023-04-10T01:02:04.642Z,99.90
2023-04-10T01:04:33.836Z,99.90
2023-04-10T01:07:33.968Z,99.90
2023-04-10T01:10:36.813Z,99.90
2023-04-10T01:13:07.518Z,99.90
2023-04-10T01:15:53.341Z,99.90
2023-04-10T01:18:47.883Z,99.90
2023-04-10T01:21:19.127Z,99.90
2023-04-10T01:24:24.659Z,99.90
2023-04-10T01:26:52.384Z,99.90
2023-04-10T01:29:21.721Z,99.90
2023-04-10T01:32:02.736Z,99.90
2023-04-10T01:34:37.612Z,99.90
2023-04-10T01:37:26.570Z,99.90
2023-04-10T01:40:04.108Z,99.90
2023-04-10T01:42:34.774Z,99.90
2023-04-10T01:45:05.499Z,99.90
2023-04-10T01:47:34.658Z,99.90
2023-04-10T01:50:04.043Z,99.90
2023-04-10T01:52:36.450Z,99.90
2023-04-10T01:55:17.325Z,99.90
2023-04-10T01:57:50.902Z,99.90
2023-04-10T02:00:19.961Z,99.90
2023-04-10T02:02:47.983Z,99.90
2023-04-10T02:05:17.433Z,99.90
2023-04-10T02:08:08.914Z,99.90
2023-04-10T02:10:56.702Z,99.90
2023-04-10T02:13:28.671Z,99.90
2023-04-10T02:16:00.007Z,99.90
2023-04-10T02:18:29.782Z,99.90
2023-04-10T02:20:57.621Z,99.90
2023-04-10T02:23:25.856Z,99.90
2023-04-10T02:25:59.078Z,99.90
2023-04-10T02:28:27.606Z,99.90
2023-04-10T02:30:58.404Z,99.90
2023-04-10T02:33:26.416Z,99.90
2023-04-10T02:35:54.328Z,99.90
2023-04-10T02:38:23.121Z,99.90
2023-04-10T02:40:51.143Z,99.90
2023-04-10T02:43:19.438Z,99.90
2023-04-10T02:45:48.213Z,99.90
2023-04-10T02:48:22.861Z,99.90
2023-04-10T02:50:59.431Z,99.90
2023-04-10T02:53:29.302Z,99.90
2023-04-10T02:56:01.082Z,99.90
2023-04-10T02:58:33.174Z,99.90
2023-04-10T03:01:02.406Z,99.90
2023-04-10T03:03:41.713Z,99.90
2023-04-10T03:06:11.154Z,99.90
2023-04-10T03:08:40.811Z,99.90
2023-04-10T03:11:10.079Z,99.90
2023-04-10T03:13:40.228Z,99.90
2023-04-10T03:16:08.333Z,99.90
2023-04-10T03:18:36.397Z,99.90
2023-04-10T03:21:04.899Z,99.90
2023-04-10T03:23:32.889Z,99.90
2023-04-10T03:26:01.234Z,99.90
2023-04-10T03:28:31.333Z,99.90
2023-04-10T03:30:59.081Z,99.90
2023-04-10T03:33:30.882Z,99.90
2023-04-10T03:36:04.193Z,99.90
2023-04-10T03:38:34.028Z,99.90
2023-04-10T03:41:01.771Z,99.90
2023-04-10T03:43:32.100Z,99.90
2023-04-10T03:46:02.346Z,99.90
2023-04-10T03:48:31.062Z,99.90
2023-04-10T03:50:59.116Z,99.90
2023-04-10T03:53:27.005Z,99.90
2023-04-10T03:55:55.946Z,99.90
2023-04-10T03:58:25.460Z,99.90
2023-04-10T04:00:55.990Z,99.90
2023-04-10T04:03:34.924Z,99.90
2023-04-10T04:06:21.418Z,99.90
2023-04-10T04:09:15.173Z,99.90
2023-04-10T04:12:01.174Z,99.90
2023-04-10T04:14:58.243Z,99.90
2023-04-10T04:17:46.713Z,99.90
2023-04-10T04:20:33.099Z,99.90
2023-04-10T04:23:13.713Z,99.90
2023-04-10T04:25:41.323Z,99.90
2023-04-10T04:28:24.146Z,99.90
2023-04-10T04:31:12.037Z,99.90
2023-04-10T04:33:51.781Z,99.90
2023-04-10T04:36:42.772Z,99.90
2023-04-10T04:39:33.509Z,99.90
2023-04-10T04:42:14.363Z,99.90
2023-04-10T04:44:51.115Z,99.90
2023-04-10T04:47:37.128Z,99.90
2023-04-10T04:50:26.930Z,99.90
2023-04-10T04:53:14.840Z,99.90
2023-04-10T04:55:53.228Z,99.90
2023-04-10T04:58:39.220Z,99.90
2023-04-10T05:01:16.984Z,99.90
2023-04-10T05:03:54.877Z,99.90
2023-04-10T05:06:42.894Z,99.90
2023-04-10T05:09:19.440Z,99.90
2023-04-10T05:12:11.262Z,99.90
2023-04-10T05:14:46.563Z,99.90
2023-04-10T05:17:43.938Z,99.90
2023-04-10T05:20:30.356Z,99.90
2023-04-10T05:23:04.763Z,91.70
2023-04-10T05:25:40.495Z,80.80
2023-04-10T05:28:19.494Z,73.30
2023-04-10T05:31:07.583Z,68.40
2023-04-10T05:33:55.870Z,62.00
2023-04-10T05:36:44.023Z,58.90
2023-04-10T05:39:32.443Z,56.60
2023-04-10T05:42:32.305Z,54.20
2023-04-10T05:45:19.077Z,52.50
2023-04-10T05:48:02.110Z,51.10
2023-04-10T05:50:41.881Z,49.40
2023-04-10T05:53:35.686Z,49.30
2023-04-10T05:56:32.756Z,46.90
2023-04-10T05:59:20.119Z,46.10
2023-04-10T06:02:06.788Z,44.40
2023-04-10T06:04:34.925Z,42.70
2023-04-10T06:07:03.812Z,39.00
2023-04-10T06:09:36.538Z,40.60
2023-04-10T06:12:07.129Z,42.00
2023-04-10T06:14:36.502Z,40.90
2023-04-10T06:17:04.451Z,40.60
2023-04-10T06:19:32.289Z,39.00
2023-04-10T06:22:00.209Z,38.10
2023-04-10T06:24:27.888Z,38.50
2023-04-10T06:26:57.600Z,39.20
2023-04-10T06:29:25.860Z,41.00
2023-04-10T06:31:53.287Z,38.70
2023-04-10T06:34:21.513Z,35.60
2023-04-10T06:37:03.179Z,37.10
2023-04-10T06:39:34.089Z,37.60
2023-04-10T06:42:03.007Z,39.20
2023-04-10T06:44:54.016Z,40.80
2023-04-10T06:47:22.039Z,39.40
2023-04-10T06:49:49.906Z,37.50
2023-04-10T06:52:18.468Z,36.00
2023-04-10T06:54:46.273Z,37.70
2023-04-10T06:57:14.162Z,39.10
2023-04-10T06:59:42.138Z,37.80
2023-04-10T07:02:09.533Z,39.30
2023-04-10T07:04:37.333Z,39.80
2023-04-10T07:07:10.321Z,39.20
2023-04-10T07:09:41.641Z,39.10
2023-04-10T07:12:15.957Z,42.10
2023-04-10T07:14:43.845Z,42.00
2023-04-10T07:17:11.601Z,43.90
2023-04-10T07:19:39.535Z,42.60
2023-04-10T07:22:08.375Z,42.50
2023-04-10T07:24:39.022Z,43.50
2023-04-10T07:27:07.083Z,44.60
2023-04-10T07:29:34.742Z,43.80
2023-04-10T07:32:02.624Z,43.30
2023-04-10T07:34:32.256Z,42.90
2023-04-10T07:36:59.990Z,43.80
2023-04-10T07:39:28.167Z,45.70
2023-04-10T07:41:56.218Z,47.80
2023-04-10T07:44:24.183Z,50.50
2023-04-10T07:46:52.752Z,53.40
2023-04-10T07:49:23.396Z,53.70
2023-04-10T07:51:51.354Z,54.50
2023-04-10T07:54:19.114Z,55.70
2023-04-10T07:56:47.124Z,56.90
2023-04-10T07:59:14.927Z,59.10
2023-04-10T08:02:02.360Z,60.10
2023-04-10T08:04:52.879Z,60.90
2023-04-10T08:07:34.342Z,62.30
2023-04-10T08:10:07.199Z,61.80
2023-04-10T08:13:00.060Z,62.10
2023-04-10T08:15:27.908Z,64.70
2023-04-10T08:17:55.780Z,65.10
2023-04-10T08:20:23.973Z,66.50
2023-04-10T08:22:51.831Z,67.70
2023-04-10T08:25:31.839Z,68.00
2023-04-10T08:34:31.256Z,65.20
2023-04-10T08:40:01.118Z,66.60
2023-04-10T08:42:33.400Z,66.30
2023-04-10T08:45:02.250Z,67.30
2023-04-10T08:48:26.683Z,67.50
2023-04-10T08:53:47.035Z,68.70
2023-04-10T08:56:26.116Z,67.30
2023-04-10T08:58:54.125Z,67.10
2023-04-10T09:01:22.517Z,66.30
2023-04-10T09:03:50.513Z,66.00
2023-04-10T09:06:18.315Z,65.40
2023-04-10T09:08:46.141Z,65.00
2023-04-10T09:11:13.988Z,62.80
2023-04-10T09:13:44.374Z,64.20
2023-04-10T09:16:15.589Z,63.50
2023-04-10T09:18:44.431Z,63.30
2023-04-10T09:21:14.088Z,64.00
2023-04-10T09:23:43.780Z,63.80
2023-04-10T09:26:33.079Z,64.70
2023-04-10T09:29:08.517Z,63.10
2023-04-10T09:31:38.518Z,62.00
2023-04-10T09:35:01.691Z,62.50
2023-04-10T09:37:40.940Z,63.00
2023-04-10T09:40:22.091Z,63.00
2023-04-10T09:42:49.902Z,61.30
2023-04-10T09:45:21.066Z,62.30
2023-04-10T09:48:08.756Z,62.80
2023-04-10T09:50:41.364Z,61.00
2023-04-10T09:53:11.093Z,60.10
2023-04-10T09:55:42.492Z,60.70
2023-04-10T09:58:11.532Z,61.70
2023-04-10T10:00:49.832Z,61.90
2023-04-10T10:03:26.616Z,61.80
2023-04-10T10:05:54.761Z,59.50
2023-04-10T10:08:24.304Z,58.90
2023-04-10T10:10:55.077Z,60.50
2023-04-10T10:13:51.254Z,57.70
2023-04-10T10:16:19.640Z,59.00
2023-04-10T10:19:26.036Z,59.30
2023-04-10T10:21:55.335Z,57.90
2023-04-10T10:24:26.955Z,56.80
2023-04-10T10:26:57.675Z,59.10
2023-04-10T10:29:25.787Z,60.20
2023-04-10T10:31:54.733Z,61.30
2023-04-10T10:34:22.642Z,60.00
2023-04-10T10:36:51.614Z,59.80
2023-04-10T10:39:42.239Z,60.00
2023-04-10T10:42:14.880Z,60.90
2023-04-10T10:45:19.832Z,59.80
2023-04-10T10:47:53.425Z,57.70
2023-04-10T10:50:25.001Z,58.40
2023-04-10T10:52:54.541Z,59.30
2023-04-10T10:55:28.668Z,58.10
2023-04-10T10:58:01.934Z,58.70
2023-04-10T11:00:52.439Z,58.30
2023-04-10T11:03:20.297Z,58.70
2023-04-10T11:05:55.754Z,57.80
2023-04-10T11:08:47.450Z,56.60
2023-04-10T11:11:25.872Z,54.40
2023-04-10T11:13:53.662Z,54.40
2023-04-10T11:16:22.418Z,57.30
2023-04-10T11:18:59.417Z,57.40
2023-04-10T11:21:34.719Z,56.50
2023-04-10T11:24:04.476Z,56.40
2023-04-10T11:26:39.644Z,56.60
2023-04-10T11:29:14.695Z,56.80
2023-04-10T11:31:44.027Z,58.10
2023-04-10T11:34:12.630Z,55.20
2023-04-10T11:36:42.640Z,56.40
2023-04-10T11:39:13.760Z,57.20
2023-04-10T11:41:46.910Z,56.80
2023-04-10T11:44:21.150Z,57.90
2023-04-10T11:46:51.036Z,57.40
2023-04-10T11:49:24.126Z,52.10
2023-04-10T11:51:52.875Z,53.80
2023-04-10T11:54:23.257Z,56.10
2023-04-10T11:56:58.964Z,55.30
2023-04-10T11:59:27.779Z,55.90
2023-04-10T12:02:08.369Z,54.20
2023-04-10T12:04:37.440Z,56.00
2023-04-10T12:07:05.979Z,55.40
2023-04-10T12:09:34.164Z,55.30
2023-04-10T12:12:04.613Z,48.50
2023-04-10T12:14:41.206Z,48.70
2023-04-10T12:17:12.339Z,48.80
2023-04-10T12:19:40.887Z,45.40
2023-04-10T12:22:12.343Z,48.30
2023-04-10T12:24:51.685Z,50.40
2023-04-10T12:27:27.035Z,50.30
2023-04-10T12:29:58.810Z,50.80
2023-04-10T12:32:33.806Z,48.30
2023-04-10T12:35:04.569Z,48.40
2023-04-10T12:37:52.616Z,49.10
2023-04-10T12:40:29.511Z,48.10
2023-04-10T12:42:57.987Z,50.90
2023-04-10T12:45:45.463Z,52.30
2023-04-10T12:48:13.281Z,50.90
2023-04-10T12:50:52.459Z,51.50
2023-04-10T12:53:20.569Z,50.70
2023-04-10T12:56:06.907Z,48.90
2023-04-10T12:58:34.809Z,48.60
2023-04-10T13:01:07.085Z,46.90
2023-04-10T13:03:36.953Z,49.20
2023-04-10T13:06:08.528Z,48.30
2023-04-10T13:08:36.704Z,48.90
2023-04-10T13:11:04.611Z,48.90
2023-04-10T13:13:33.234Z,48.20
2023-04-10T13:16:01.265Z,48.40
2023-04-10T13:18:32.010Z,47.90
2023-04-10T13:20:59.901Z,48.30
2023-04-10T13:23:27.582Z,48.40
2023-04-10T13:25:57.275Z,48.00
2023-04-10T13:28:28.179Z,48.00
2023-04-10T13:30:56.997Z,46.60
2023-04-10T13:33:25.416Z,47.50
2023-04-10T13:35:53.241Z,46.80
2023-04-10T13:38:24.011Z,46.40
2023-04-10T13:40:54.716Z,47.70
2023-04-10T13:43:22.678Z,48.50
2023-04-10T13:45:50.450Z,47.00
2023-04-10T13:48:24.521Z,46.90
2023-04-10T13:50:57.813Z,47.20
2023-04-10T13:53:25.866Z,47.60
2023-04-10T13:55:53.624Z,46.00
2023-04-10T13:58:25.483Z,44.80
2023-04-10T14:00:53.381Z,46.70
2023-04-10T14:03:21.791Z,46.60
2023-04-10T14:05:51.083Z,47.90
2023-04-10T14:08:19.049Z,46.90
2023-04-10T14:10:56.885Z,46.60
2023-04-10T14:13:24.647Z,47.10
2023-04-10T14:15:55.077Z,45.80
2023-04-10T14:18:22.601Z,46.60
2023-04-10T14:20:54.150Z,46.00
2023-04-10T14:23:26.012Z,46.30
2023-04-10T14:25:54.178Z,47.50
2023-04-10T14:28:21.946Z,46.40
2023-04-10T14:30:51.683Z,48.10
2023-04-10T14:33:20.049Z,47.20
2023-04-10T14:35:50.933Z,48.20
2023-04-10T14:38:19.949Z,47.60
2023-04-10T14:40:50.486Z,46.90
2023-04-10T14:43:19.781Z,48.40
2023-04-10T14:45:47.572Z,49.50
2023-04-10T14:48:15.535Z,48.10
2023-04-10T14:50:43.635Z,46.70
2023-04-10T14:53:11.425Z,47.60
2023-04-10T14:55:42.422Z,45.90
2023-04-10T14:58:11.625Z,46.00
2023-04-10T15:00:39.495Z,46.30
2023-04-10T15:03:08.837Z,45.40
2023-04-10T15:05:36.900Z,48.30
2023-04-10T15:08:05.312Z,46.90
2023-04-10T15:10:33.035Z,48.30
2023-04-10T15:13:02.345Z,48.20
2023-04-10T15:15:30.091Z,48.20
2023-04-10T15:17:57.367Z,47.70
2023-04-10T15:20:43.285Z,49.40
2023-04-10T15:23:27.771Z,48.70
2023-04-10T15:25:59.325Z,49.40
2023-04-10T15:28:29.400Z,47.30
2023-04-10T15:30:58.074Z,47.70
2023-04-10T15:33:25.845Z,49.60
2023-04-10T15:35:59.759Z,48.80
2023-04-10T15:38:29.039Z,47.00
2023-04-10T15:40:59.338Z,47.60
2023-04-10T15:43:29.630Z,51.80
2023-04-10T15:46:00.625Z,50.40
2023-04-10T15:48:29.452Z,54.70
2023-04-10T15:50:56.780Z,48.70
2023-04-10T15:53:24.110Z,48.00
2023-04-10T15:55:53.830Z,47.60
2023-04-10T15:58:21.104Z,48.60
2023-04-10T16:00:48.335Z,50.10
2023-04-10T16:03:16.272Z,50.60
2023-04-10T16:05:46.233Z,49.40
2023-04-10T16:08:13.734Z,50.40
2023-04-10T16:10:41.151Z,51.30
2023-04-10T16:13:08.845Z,50.60
2023-04-10T16:15:41.460Z,51.50
2023-04-10T16:18:08.928Z,53.00
2023-04-10T16:20:38.206Z,52.60
2023-04-10T16:23:14.582Z,52.80
2023-04-10T16:25:48.373Z,52.90
2023-04-10T16:28:21.322Z,53.50
2023-04-10T16:30:49.013Z,53.70
2023-04-10T16:33:18.913Z,54.30
2023-04-10T16:35:48.034Z,54.30
2023-04-10T16:38:16.163Z,55.00
2023-04-10T16:40:44.061Z,55.20
2023-04-10T16:43:14.870Z,55.20
2023-04-10T16:45:42.713Z,56.00
2023-04-10T16:48:10.546Z,55.70
2023-04-10T16:50:38.410Z,56.10
2023-04-10T16:53:06.085Z,56.20
2023-04-10T16:55:36.909Z,56.50
2023-04-10T16:58:04.415Z,56.80
2023-04-10T17:00:41.170Z,56.90
2023-04-10T17:03:23.542Z,57.50
2023-04-10T17:05:51.711Z,58.10
2023-04-10T17:08:19.084Z,58.60
2023-04-10T17:10:46.913Z,59.10
2023-04-10T17:13:22.400Z,59.50
2023-04-10T17:15:51.900Z,59.80
2023-04-10T17:18:26.102Z,60.00
2023-04-10T17:20:56.433Z,60.40
2023-04-10T17:23:24.225Z,60.80
2023-04-10T17:25:53.830Z,61.70
2023-04-10T17:28:24.260Z,62.40
2023-04-10T17:30:58.777Z,62.60
2023-04-10T17:33:41.322Z,63.10
2023-04-10T17:36:12.490Z,63.40
2023-04-10T17:38:46.089Z,63.70
2023-04-10T17:41:18.398Z,64.00
2023-04-10T17:43:48.827Z,64.50
2023-04-10T17:46:22.143Z,64.90
2023-04-10T17:48:52.806Z,65.10
2023-04-10T17:51:20.730Z,65.30
2023-04-10T17:53:48.413Z,66.00
2023-04-10T17:56:19.853Z,66.30
2023-04-10T17:58:47.798Z,66.70
2023-04-10T18:01:23.379Z,67.00
2023-04-10T18:03:55.976Z,67.60
2023-04-10T18:06:28.915Z,67.70
2023-04-10T18:09:04.159Z,68.90
2023-04-10T18:11:32.177Z,74.10
2023-04-10T18:14:03.038Z,72.00
2023-04-10T18:16:31.421Z,69.50
2023-04-10T18:18:59.089Z,70.60
2023-04-10T18:21:29.329Z,69.10
2023-04-10T18:23:56.476Z,68.00
2023-04-10T18:26:23.603Z,67.40
2023-04-10T18:28:50.688Z,66.90
2023-04-10T18:31:19.344Z,66.90
2023-04-10T18:33:53.360Z,67.50
2023-04-10T18:36:31.827Z,67.00
2023-04-10T18:38:58.970Z,67.20
2023-04-10T18:41:26.476Z,67.20
2023-04-10T18:44:01.775Z,67.20
2023-04-10T18:46:32.975Z,67.00
2023-04-10T18:49:01.664Z,67.10
2023-04-10T18:51:28.896Z,66.90
2023-04-10T18:53:56.431Z,66.70
2023-04-10T18:56:38.682Z,66.60
2023-04-10T18:59:08.926Z,66.80
2023-04-10T19:01:43.353Z,66.90
2023-04-10T19:04:14.419Z,67.00
2023-04-10T19:06:47.664Z,67.10
2023-04-10T19:09:20.718Z,68.30
2023-04-10T19:11:50.538Z,73.10
2023-04-10T19:14:17.866Z,68.30
2023-04-10T19:16:45.339Z,68.00
2023-04-10T19:19:12.714Z,68.20
2023-04-10T19:21:39.890Z,68.60
2023-04-10T19:24:17.644Z,69.20
2023-04-10T19:26:45.755Z,69.80
2023-04-10T19:29:13.722Z,70.10
2023-04-10T19:31:41.100Z,70.60
2023-04-10T19:34:11.437Z,71.10
2023-04-10T19:36:38.912Z,71.40
2023-04-10T19:39:06.488Z,71.70
2023-04-10T19:41:33.675Z,71.80
2023-04-10T19:44:01.069Z,72.20
2023-04-10T19:46:28.296Z,72.10
2023-04-10T19:48:55.657Z,72.10
2023-04-10T19:51:23.077Z,76.50
2023-04-10T19:53:50.437Z,83.40
2023-04-10T19:56:20.828Z,77.00
2023-04-10T19:58:50.665Z,72.90
2023-04-10T20:01:18.405Z,72.50
2023-04-10T20:03:46.184Z,72.60
2023-04-10T20:06:13.385Z,72.70
2023-04-10T20:08:41.473Z,72.80
2023-04-10T20:11:09.694Z,77.60
2023-04-10T20:13:42.102Z,76.60
2023-04-10T20:16:09.942Z,76.10
2023-04-10T20:18:37.902Z,74.70
2023-04-10T20:21:08.084Z,80.20
2023-04-10T20:23:35.983Z,85.70
2023-04-10T20:26:03.718Z,91.80
2023-04-10T20:28:32.169Z,95.00
2023-04-10T20:31:00.118Z,95.20
2023-04-10T20:33:31.115Z,94.80
2023-04-10T20:35:59.193Z,98.50
2023-04-10T20:38:27.516Z,99.90
2023-04-10T20:40:58.604Z,99.90
2023-04-10T20:43:25.970Z,99.90
2023-04-10T20:45:54.019Z,99.90
2023-04-10T20:48:24.723Z,99.90
2023-04-10T20:50:55.188Z,99.90
2023-04-10T20:53:22.982Z,99.90
2023-04-10T20:55:56.989Z,99.90
2023-04-10T20:58:27.234Z,99.90
2023-04-10T21:00:55.105Z,99.90
2023-04-10T21:03:23.392Z,99.90
2023-04-10T21:05:53.439Z,99.90
2023-04-10T21:08:22.438Z,99.90
2023-04-10T21:10:50.085Z,99.90
2023-04-10T21:13:17.831Z,99.90
2023-04-10T21:15:52.607Z,99.90
2023-04-10T21:18:23.492Z,99.90
2023-04-10T21:21:01.483Z,99.90
2023-04-10T21:23:31.922Z,99.90
2023-04-10T21:26:02.933Z,99.90
2023-04-10T21:28:30.836Z,99.90
2023-04-10T21:30:58.676Z,99.90
2023-04-10T21:33:26.402Z,99.90
2023-04-10T21:35:54.269Z,99.90
2023-04-10T21:38:23.834Z,99.90
2023-04-10T21:40:55.432Z,99.90
2023-04-10T21:43:23.368Z,99.90
2023-04-10T21:45:51.220Z,99.90
2023-04-10T21:48:21.059Z,99.90
2023-04-10T21:50:51.058Z,99.90
2023-04-10T21:53:19.774Z,99.90
2023-04-10T21:55:47.760Z,99.90
2023-04-10T21:58:15.145Z,99.90
2023-04-10T22:00:42.993Z,99.90
2023-04-10T22:03:11.028Z,99.90
2023-04-10T22:05:40.996Z,99.90
2023-04-10T22:08:08.928Z,99.90
2023-04-10T22:10:38.089Z,99.90
2023-04-10T22:13:06.072Z,99.90
2023-04-10T22:15:34.478Z,99.90
2023-04-10T22:18:01.784Z,99.90
2023-04-10T22:20:29.379Z,99.90
2023-04-10T22:22:57.167Z,99.90
2023-04-10T22:25:24.857Z,99.90
2023-04-10T22:27:52.844Z,99.90
2023-04-10T22:30:20.461Z,99.90
2023-04-10T22:32:48.431Z,99.90
2023-04-10T22:35:18.426Z,99.90
2023-04-10T22:37:49.010Z,99.90
2023-04-10T22:40:16.886Z,99.90
2023-04-10T22:42:45.902Z,99.90
2023-04-10T22:45:22.852Z,99.90
2023-04-10T22:47:50.693Z,99.90
2023-04-10T22:50:18.744Z,99.90
2023-04-10T22:52:46.708Z,99.90
2023-04-10T22:55:14.881Z,99.90
2023-04-10T22:57:49.866Z,99.90
2023-04-10T23:00:17.863Z,99.90
2023-04-10T23:02:45.820Z,99.90
2023-04-10T23:05:16.807Z,99.90
2023-04-10T23:07:46.792Z,99.90
2023-04-10T23:10:14.544Z,99.90
2023-04-10T23:12:42.211Z,99.90
2023-04-10T23:15:10.217Z,99.90
2023-04-10T23:17:37.993Z,99.90
2023-04-10T23:20:08.761Z,99.90
2023-04-10T23:22:38.987Z,99.90
2023-04-10T23:25:07.344Z,99.90
2023-04-10T23:27:35.104Z,99.90
2023-04-10T23:30:07.228Z,99.90
2023-04-10T23:32:35.120Z,99.90
2023-04-10T23:35:03.060Z,99.90
2023-04-10T23:37:33.446Z,99.90
2023-04-10T23:40:01.145Z,99.90
2023-04-10T23:42:28.956Z,99.90
2023-04-10T23:45:00.017Z,99.90
2023-04-10T23:47:29.893Z,99.90
2023-04-10T23:49:58.024Z,99.90
2023-04-10T23:52:28.857Z,99.90
2023-04-10T23:55:05.541Z,99.90
2023-04-10T23:57:33.399Z,99.90
